sensor_id;sensor_type;location;lat;lon;timestamp;temperature;humidity
10812;DHT22;5458;51.496;7.334;2022-11-20T00:01:21;0.50;99.90
10812;DHT22;5458;51.496;7.334;2022-11-20T00:03:48;0.50;99.90
10812;DHT22;5458;51.496;7.334;2022-11-20T00:06:18;0.50;99.90
10812;DHT22;5458;51.496;7.334;2022-11-20T00:08:44;0.50;99.90
10812;DHT22;5458;51.496;7.334;2022-11-20T00:13:36;0.50;99.90
10812;DHT22;5458;51.496;7.334;2022-11-20T00:16:04;0.50;99.90
10812;DHT22;5458;51.496;7.334;2022-11-20T00:18:30;0.60;99.90
10812;DHT22;5458;51.496;7.334;2022-11-20T00:21:05;0.70;99.90
10812;DHT22;5458;51.496;7.334;2022-11-20T00:23:31;0.70;99.90
10812;DHT22;5458;51.496;7.334;2022-11-20T00:26:01;0.80;99.90
10812;DHT22;5458;51.496;7.334;2022-11-20T00:28:27;0.80;99.90
10812;DHT22;5458;51.496;7.334;2022-11-20T00:31:13;0.90;99.90
10812;DHT22;5458;51.496;7.334;2022-11-20T00:33:39;0.90;99.90
10812;DHT22;5458;51.496;7.334;2022-11-20T00:36:16;1.00;99.90
10812;DHT22;5458;51.496;7.334;2022-11-20T00:38:42;1.10;99.90
10812;DHT22;5458;51.496;7.334;2022-11-20T00:41:10;1.10;99.90
10812;DHT22;5458;51.496;7.334;2022-11-20T00:43:37;1.20;99.90
10812;DHT22;5458;51.496;7.334;2022-11-20T00:46:06;1.20;99.90
10812;DHT22;5458;51.496;7.334;2022-11-20T00:48:32;1.20;99.90
10812;DHT22;5458;51.496;7.334;2022-11-20T00:50:58;1.30;99.90
10812;DHT22;5458;51.496;7.334;2022-11-20T00:53:24;1.30;99.90
10812;DHT22;5458;51.496;7.334;2022-11-20T00:55:54;1.30;99.90
10812;DHT22;5458;51.496;7.334;2022-11-20T00:58:20;1.30;99.90
10812;DHT22;5458;51.496;7.334;2022-11-20T01:00:45;1.40;99.90
10812;DHT22;5458;51.496;7.334;2022-11-20T01:03:11;1.40;99.90
10812;DHT22;5458;51.496;7.334;2022-11-20T01:05:37;1.40;99.90
10812;DHT22;5458;51.496;7.334;2022-11-20T01:08:02;1.40;99.90
10812;DHT22;5458;51.496;7.334;2022-11-20T01:10:28;1.40;99.90
10812;DHT22;5458;51.496;7.334;2022-11-20T01:12:54;1.50;99.90
10812;DHT22;5458;51.496;7.334;2022-11-20T01:15:39;1.50;99.90
10812;DHT22;5458;51.496;7.334;2022-11-20T01:18:05;1.40;99.90
10812;DHT22;5458;51.496;7.334;2022-11-20T01:20:34;1.50;99.90
10812;DHT22;5458;51.496;7.334;2022-11-20T01:23:01;1.50;99.90
10812;DHT22;5458;51.496;7.334;2022-11-20T01:25:26;1.50;99.90
10812;DHT22;5458;51.496;7.334;2022-11-20T01:27:52;1.60;99.90
10812;DHT22;5458;51.496;7.334;2022-11-20T01:30:18;1.60;99.90
10812;DHT22;5458;51.496;7.334;2022-11-20T01:32:43;1.60;99.90
10812;DHT22;5458;51.496;7.334;2022-11-20T01:35:09;1.60;99.90
10812;DHT22;5458;51.496;7.334;2022-11-20T01:37:35;1.60;99.90
10812;DHT22;5458;51.496;7.334;2022-11-20T01:40:01;1.70;99.90
10812;DHT22;5458;51.496;7.334;2022-11-20T01:42:27;1.60;99.90
10812;DHT22;5458;51.496;7.334;2022-11-20T01:48:11;1.50;99.90
10812;DHT22;5458;51.496;7.334;2022-11-20T01:50:37;1.50;99.90
10812;DHT22;5458;51.496;7.334;2022-11-20T01:53:09;1.40;99.90
10812;DHT22;5458;51.496;7.334;2022-11-20T01:55:39;1.40;99.90
10812;DHT22;5458;51.496;7.334;2022-11-20T01:58:06;1.40;99.90
10812;DHT22;5458;51.496;7.334;2022-11-20T02:00:32;1.40;99.90
10812;DHT22;5458;51.496;7.334;2022-11-20T02:03:01;1.30;99.90
10812;DHT22;5458;51.496;7.334;2022-11-20T02:05:37;1.30;99.90
10812;DHT22;5458;51.496;7.334;2022-11-20T02:08:05;1.20;99.90
10812;DHT22;5458;51.496;7.334;2022-11-20T02:10:31;1.20;99.90
10812;DHT22;5458;51.496;7.334;2022-11-20T02:12:58;1.20;99.90
10812;DHT22;5458;51.496;7.334;2022-11-20T02:15:42;1.30;99.90
10812;DHT22;5458;51.496;7.334;2022-11-20T02:18:09;1.40;99.90
10812;DHT22;5458;51.496;7.334;2022-11-20T02:20:35;1.40;99.90
10812;DHT22;5458;51.496;7.334;2022-11-20T02:23:23;1.50;99.90
10812;DHT22;5458;51.496;7.334;2022-11-20T02:25:49;1.50;99.90
10812;DHT22;5458;51.496;7.334;2022-11-20T02:28:17;1.60;99.90
10812;DHT22;5458;51.496;7.334;2022-11-20T02:30:43;1.60;99.90
10812;DHT22;5458;51.496;7.334;2022-11-20T02:33:08;1.60;99.90
10812;DHT22;5458;51.496;7.334;2022-11-20T02:38:01;1.70;99.90
10812;DHT22;5458;51.496;7.334;2022-11-20T02:40:28;1.70;99.90
10812;DHT22;5458;51.496;7.334;2022-11-20T02:42:57;1.70;99.90
10812;DHT22;5458;51.496;7.334;2022-11-20T02:45:23;1.70;99.90
10812;DHT22;5458;51.496;7.334;2022-11-20T02:47:49;1.70;99.90
10812;DHT22;5458;51.496;7.334;2022-11-20T02:50:15;1.80;99.90
10812;DHT22;5458;51.496;7.334;2022-11-20T02:52:41;1.80;99.90
10812;DHT22;5458;51.496;7.334;2022-11-20T02:55:06;1.80;99.90
10812;DHT22;5458;51.496;7.334;2022-11-20T02:57:32;1.80;99.90
10812;DHT22;5458;51.496;7.334;2022-11-20T02:59:57;1.90;99.90
10812;DHT22;5458;51.496;7.334;2022-11-20T03:02:23;1.90;99.90
10812;DHT22;5458;51.496;7.334;2022-11-20T03:04:49;1.90;99.90
10812;DHT22;5458;51.496;7.334;2022-11-20T03:07:14;1.90;99.90
10812;DHT22;5458;51.496;7.334;2022-11-20T03:09:40;2.00;99.90
10812;DHT22;5458;51.496;7.334;2022-11-20T03:12:05;1.90;99.90
10812;DHT22;5458;51.496;7.334;2022-11-20T03:14:31;2.00;99.90
10812;DHT22;5458;51.496;7.334;2022-11-20T03:16:57;2.00;99.90
10812;DHT22;5458;51.496;7.334;2022-11-20T03:19:23;2.00;99.90
10812;DHT22;5458;51.496;7.334;2022-11-20T03:21:48;2.00;99.90
10812;DHT22;5458;51.496;7.334;2022-11-20T03:24:14;2.00;99.90
10812;DHT22;5458;51.496;7.334;2022-11-20T03:26:40;2.00;99.90
10812;DHT22;5458;51.496;7.334;2022-11-20T03:29:06;2.00;99.90
10812;DHT22;5458;51.496;7.334;2022-11-20T03:31:39;2.10;99.90
10812;DHT22;5458;51.496;7.334;2022-11-20T03:34:09;2.00;99.90
10812;DHT22;5458;51.496;7.334;2022-11-20T03:36:38;2.10;99.90
10812;DHT22;5458;51.496;7.334;2022-11-20T03:39:03;2.20;99.90
10812;DHT22;5458;51.496;7.334;2022-11-20T03:41:30;2.20;99.90
10812;DHT22;5458;51.496;7.334;2022-11-20T03:44:02;2.20;99.90
10812;DHT22;5458;51.496;7.334;2022-11-20T03:46:28;2.20;99.90
10812;DHT22;5458;51.496;7.334;2022-11-20T03:48:54;2.20;99.90
10812;DHT22;5458;51.496;7.334;2022-11-20T03:53:48;2.30;99.90
10812;DHT22;5458;51.496;7.334;2022-11-20T03:56:15;2.30;99.90
10812;DHT22;5458;51.496;7.334;2022-11-20T03:58:42;2.30;99.90
10812;DHT22;5458;51.496;7.334;2022-11-20T04:01:10;2.30;99.90
10812;DHT22;5458;51.496;7.334;2022-11-20T04:03:37;2.30;99.90
10812;DHT22;5458;51.496;7.334;2022-11-20T04:06:09;2.20;99.90
10812;DHT22;5458;51.496;7.334;2022-11-20T04:08:35;2.20;99.90
10812;DHT22;5458;51.496;7.334;2022-11-20T04:11:12;2.30;99.90
10812;DHT22;5458;51.496;7.334;2022-11-20T04:13:38;2.20;99.90
10812;DHT22;5458;51.496;7.334;2022-11-20T04:16:05;2.30;99.90
10812;DHT22;5458;51.496;7.334;2022-11-20T04:18:30;2.30;99.90
10812;DHT22;5458;51.496;7.334;2022-11-20T04:20:57;2.30;99.90
10812;DHT22;5458;51.496;7.334;2022-11-20T04:23:23;2.20;99.90
10812;DHT22;5458;51.496;7.334;2022-11-20T04:25:48;2.20;99.90
10812;DHT22;5458;51.496;7.334;2022-11-20T04:28:14;2.20;99.90
10812;DHT22;5458;51.496;7.334;2022-11-20T04:30:39;2.20;99.90
10812;DHT22;5458;51.496;7.334;2022-11-20T04:33:05;2.20;99.90
10812;DHT22;5458;51.496;7.334;2022-11-20T04:35:34;2.30;99.90
10812;DHT22;5458;51.496;7.334;2022-11-20T04:37:59;2.30;99.90
10812;DHT22;5458;51.496;7.334;2022-11-20T04:40:25;2.30;99.90
10812;DHT22;5458;51.496;7.334;2022-11-20T04:42:50;2.40;99.90
10812;DHT22;5458;51.496;7.334;2022-11-20T04:45:16;2.30;99.90
10812;DHT22;5458;51.496;7.334;2022-11-20T04:47:41;2.40;99.90
10812;DHT22;5458;51.496;7.334;2022-11-20T04:50:07;2.40;99.90
10812;DHT22;5458;51.496;7.334;2022-11-20T04:52:33;2.40;99.90
10812;DHT22;5458;51.496;7.334;2022-11-20T04:54:58;2.40;99.90
10812;DHT22;5458;51.496;7.334;2022-11-20T04:57:24;2.50;99.90
10812;DHT22;5458;51.496;7.334;2022-11-20T04:59:49;2.50;99.90
10812;DHT22;5458;51.496;7.334;2022-11-20T05:02:15;2.50;99.90
10812;DHT22;5458;51.496;7.334;2022-11-20T05:04:40;2.50;99.90
10812;DHT22;5458;51.496;7.334;2022-11-20T05:07:06;2.50;99.90
10812;DHT22;5458;51.496;7.334;2022-11-20T05:09:31;2.50;99.90
10812;DHT22;5458;51.496;7.334;2022-11-20T05:11:57;2.50;99.90
10812;DHT22;5458;51.496;7.334;2022-11-20T05:14:23;2.50;99.90
10812;DHT22;5458;51.496;7.334;2022-11-20T05:16:48;2.50;99.90
10812;DHT22;5458;51.496;7.334;2022-11-20T05:19:14;2.50;99.90
10812;DHT22;5458;51.496;7.334;2022-11-20T05:21:39;2.50;99.90
10812;DHT22;5458;51.496;7.334;2022-11-20T05:24:05;2.50;99.90
10812;DHT22;5458;51.496;7.334;2022-11-20T05:26:32;2.50;99.90
10812;DHT22;5458;51.496;7.334;2022-11-20T05:28:58;2.60;99.90
10812;DHT22;5458;51.496;7.334;2022-11-20T05:31:24;2.60;99.90
10812;DHT22;5458;51.496;7.334;2022-11-20T05:33:50;2.50;99.90
10812;DHT22;5458;51.496;7.334;2022-11-20T05:36:16;2.50;99.90
10812;DHT22;5458;51.496;7.334;2022-11-20T05:38:43;2.50;99.90
10812;DHT22;5458;51.496;7.334;2022-11-20T05:41:13;2.50;99.90
10812;DHT22;5458;51.496;7.334;2022-11-20T05:43:40;2.50;99.90
10812;DHT22;5458;51.496;7.334;2022-11-20T05:46:07;2.50;99.90
10812;DHT22;5458;51.496;7.334;2022-11-20T05:48:34;2.50;99.90
10812;DHT22;5458;51.496;7.334;2022-11-20T05:51:01;2.40;99.90
10812;DHT22;5458;51.496;7.334;2022-11-20T05:53:27;2.30;99.90
10812;DHT22;5458;51.496;7.334;2022-11-20T05:56:05;2.30;99.90
10812;DHT22;5458;51.496;7.334;2022-11-20T05:58:31;2.30;99.90
10812;DHT22;5458;51.496;7.334;2022-11-20T06:01:24;2.30;99.90
10812;DHT22;5458;51.496;7.334;2022-11-20T06:03:50;2.20;99.90
10812;DHT22;5458;51.496;7.334;2022-11-20T06:06:17;2.20;99.90
10812;DHT22;5458;51.496;7.334;2022-11-20T06:08:44;2.20;99.90
10812;DHT22;5458;51.496;7.334;2022-11-20T06:11:12;2.20;99.90
10812;DHT22;5458;51.496;7.334;2022-11-20T06:13:39;2.20;99.90
10812;DHT22;5458;51.496;7.334;2022-11-20T06:16:05;2.20;99.90
10812;DHT22;5458;51.496;7.334;2022-11-20T06:18:30;2.20;99.90
10812;DHT22;5458;51.496;7.334;2022-11-20T06:21:08;2.10;99.90
10812;DHT22;5458;51.496;7.334;2022-11-20T06:23:34;2.10;99.90
10812;DHT22;5458;51.496;7.334;2022-11-20T06:26:05;2.20;99.90
10812;DHT22;5458;51.496;7.334;2022-11-20T06:28:31;2.10;99.90
10812;DHT22;5458;51.496;7.334;2022-11-20T06:30:58;2.20;99.90
10812;DHT22;5458;51.496;7.334;2022-11-20T06:33:24;2.10;99.90
10812;DHT22;5458;51.496;7.334;2022-11-20T06:35:49;2.10;99.90
10812;DHT22;5458;51.496;7.334;2022-11-20T06:38:15;2.10;99.90
10812;DHT22;5458;51.496;7.334;2022-11-20T06:40:41;2.10;99.90
10812;DHT22;5458;51.496;7.334;2022-11-20T06:43:09;2.00;99.90
10812;DHT22;5458;51.496;7.334;2022-11-20T06:45:35;2.00;99.90
10812;DHT22;5458;51.496;7.334;2022-11-20T06:48:00;2.00;99.90
10812;DHT22;5458;51.496;7.334;2022-11-20T06:50:26;2.00;99.90
10812;DHT22;5458;51.496;7.334;2022-11-20T06:52:51;1.90;99.90
10812;DHT22;5458;51.496;7.334;2022-11-20T06:55:17;1.90;99.90
10812;DHT22;5458;51.496;7.334;2022-11-20T06:57:42;1.90;99.90
10812;DHT22;5458;51.496;7.334;2022-11-20T07:00:09;1.90;99.90
10812;DHT22;5458;51.496;7.334;2022-11-20T07:02:34;1.80;99.90
10812;DHT22;5458;51.496;7.334;2022-11-20T07:05:00;1.80;99.90
10812;DHT22;5458;51.496;7.334;2022-11-20T07:07:25;1.80;99.90
10812;DHT22;5458;51.496;7.334;2022-11-20T07:09:51;1.80;99.90
10812;DHT22;5458;51.496;7.334;2022-11-20T07:12:16;1.70;99.90
10812;DHT22;5458;51.496;7.334;2022-11-20T07:14:42;1.70;99.90
10812;DHT22;5458;51.496;7.334;2022-11-20T07:17:07;1.70;99.90
10812;DHT22;5458;51.496;7.334;2022-11-20T07:19:33;1.80;99.90
10812;DHT22;5458;51.496;7.334;2022-11-20T07:21:59;1.80;99.90
10812;DHT22;5458;51.496;7.334;2022-11-20T07:24:24;1.80;99.90
10812;DHT22;5458;51.496;7.334;2022-11-20T07:26:50;1.90;99.90
10812;DHT22;5458;51.496;7.334;2022-11-20T07:29:15;1.90;99.90
10812;DHT22;5458;51.496;7.334;2022-11-20T07:31:42;2.00;99.90
10812;DHT22;5458;51.496;7.334;2022-11-20T07:34:08;2.00;99.90
10812;DHT22;5458;51.496;7.334;2022-11-20T07:36:34;2.10;99.90
10812;DHT22;5458;51.496;7.334;2022-11-20T07:38:59;2.10;99.90
10812;DHT22;5458;51.496;7.334;2022-11-20T07:41:25;2.20;99.90
10812;DHT22;5458;51.496;7.334;2022-11-20T07:43:50;2.20;99.90
10812;DHT22;5458;51.496;7.334;2022-11-20T07:46:16;2.20;99.90
10812;DHT22;5458;51.496;7.334;2022-11-20T07:48:41;2.30;99.90
10812;DHT22;5458;51.496;7.334;2022-11-20T07:51:07;2.20;99.90
10812;DHT22;5458;51.496;7.334;2022-11-20T07:53:33;2.20;99.90
10812;DHT22;5458;51.496;7.334;2022-11-20T07:56:02;2.20;99.90
10812;DHT22;5458;51.496;7.334;2022-11-20T07:58:31;2.30;99.90
10812;DHT22;5458;51.496;7.334;2022-11-20T08:01:05;2.30;99.90
10812;DHT22;5458;51.496;7.334;2022-11-20T08:03:30;2.40;99.90
10812;DHT22;5458;51.496;7.334;2022-11-20T08:05:59;2.40;99.90
10812;DHT22;5458;51.496;7.334;2022-11-20T08:08:25;2.40;99.90
10812;DHT22;5458;51.496;7.334;2022-11-20T08:10:51;2.40;99.90
10812;DHT22;5458;51.496;7.334;2022-11-20T08:13:17;2.50;99.90
10812;DHT22;5458;51.496;7.334;2022-11-20T08:16:01;2.60;99.90
10812;DHT22;5458;51.496;7.334;2022-11-20T08:18:26;2.70;99.90
10812;DHT22;5458;51.496;7.334;2022-11-20T08:20:52;2.80;99.90
10812;DHT22;5458;51.496;7.334;2022-11-20T08:23:18;2.90;99.90
10812;DHT22;5458;51.496;7.334;2022-11-20T08:25:43;2.90;99.90
10812;DHT22;5458;51.496;7.334;2022-11-20T08:28:09;3.00;99.90
10812;DHT22;5458;51.496;7.334;2022-11-20T08:30:36;3.10;99.90
10812;DHT22;5458;51.496;7.334;2022-11-20T08:33:04;3.10;99.90
10812;DHT22;5458;51.496;7.334;2022-11-20T08:35:37;3.20;99.90
10812;DHT22;5458;51.496;7.334;2022-11-20T08:38:04;3.40;99.90
10812;DHT22;5458;51.496;7.334;2022-11-20T08:40:29;3.80;99.90
10812;DHT22;5458;51.496;7.334;2022-11-20T08:42:55;4.50;99.90
10812;DHT22;5458;51.496;7.334;2022-11-20T08:45:20;6.50;99.90
10812;DHT22;5458;51.496;7.334;2022-11-20T08:47:46;8.90;99.90
10812;DHT22;5458;51.496;7.334;2022-11-20T08:50:14;11.30;95.10
10812;DHT22;5458;51.496;7.334;2022-11-20T08:52:40;13.20;90.70
10812;DHT22;5458;51.496;7.334;2022-11-20T08:55:06;14.70;83.90
10812;DHT22;5458;51.496;7.334;2022-11-20T08:57:32;15.80;77.80
10812;DHT22;5458;51.496;7.334;2022-11-20T08:59:58;16.80;72.60
10812;DHT22;5458;51.496;7.334;2022-11-20T09:02:24;17.50;69.00
10812;DHT22;5458;51.496;7.334;2022-11-20T09:04:50;17.90;65.50
10812;DHT22;5458;51.496;7.334;2022-11-20T09:07:15;18.20;63.10
10812;DHT22;5458;51.496;7.334;2022-11-20T09:09:41;18.50;60.60
10812;DHT22;5458;51.496;7.334;2022-11-20T09:12:07;18.80;59.40
10812;DHT22;5458;51.496;7.334;2022-11-20T09:14:32;19.00;58.30
10812;DHT22;5458;51.496;7.334;2022-11-20T09:16:59;19.10;57.70
10812;DHT22;5458;51.496;7.334;2022-11-20T09:19:24;19.30;56.70
10812;DHT22;5458;51.496;7.334;2022-11-20T09:21:51;19.40;56.50
10812;DHT22;5458;51.496;7.334;2022-11-20T09:24:17;19.50;55.80
10812;DHT22;5458;51.496;7.334;2022-11-20T09:26:43;19.80;54.30
10812;DHT22;5458;51.496;7.334;2022-11-20T09:29:09;20.20;53.80
10812;DHT22;5458;51.496;7.334;2022-11-20T09:31:34;20.40;52.40
10812;DHT22;5458;51.496;7.334;2022-11-20T09:34:00;20.50;52.40
10812;DHT22;5458;51.496;7.334;2022-11-20T09:36:25;20.70;51.90
10812;DHT22;5458;51.496;7.334;2022-11-20T09:38:51;20.80;51.10
10812;DHT22;5458;51.496;7.334;2022-11-20T09:44:38;20.60;49.80
10812;DHT22;5458;51.496;7.334;2022-11-20T09:47:22;20.30;50.50
10812;DHT22;5458;51.496;7.334;2022-11-20T09:50:18;20.30;50.30
10812;DHT22;5458;51.496;7.334;2022-11-20T09:55:30;19.10;50.80
10812;DHT22;5458;51.496;7.334;2022-11-20T09:57:56;18.00;51.80
10812;DHT22;5458;51.496;7.334;2022-11-20T10:00:23;16.80;53.70
10812;DHT22;5458;51.496;7.334;2022-11-20T10:08:30;13.10;60.30
10812;DHT22;5458;51.496;7.334;2022-11-20T10:11:30;12.00;62.30
10812;DHT22;5458;51.496;7.334;2022-11-20T10:16:42;10.50;69.40
10812;DHT22;5458;51.496;7.334;2022-11-20T10:29:43;8.70;81.50
10812;DHT22;5458;51.496;7.334;2022-11-20T10:32:20;8.40;83.50
10812;DHT22;5458;51.496;7.334;2022-11-20T10:37:35;8.00;87.90
10812;DHT22;5458;51.496;7.334;2022-11-20T10:42:55;7.90;90.80
10812;DHT22;5458;51.496;7.334;2022-11-20T10:48:23;7.80;90.90
10812;DHT22;5458;51.496;7.334;2022-11-20T10:50:57;7.70;91.30
10812;DHT22;5458;51.496;7.334;2022-11-20T10:53:45;7.70;91.70
10812;DHT22;5458;51.496;7.334;2022-11-20T11:01:43;7.50;92.60
10812;DHT22;5458;51.496;7.334;2022-11-20T11:04:28;7.40;92.60
10812;DHT22;5458;51.496;7.334;2022-11-20T11:07:01;7.40;92.60
10812;DHT22;5458;51.496;7.334;2022-11-20T11:09:38;7.30;92.70
10812;DHT22;5458;51.496;7.334;2022-11-20T11:12:09;7.20;93.10
10812;DHT22;5458;51.496;7.334;2022-11-20T11:14:46;7.10;93.60
10812;DHT22;5458;51.496;7.334;2022-11-20T11:17:32;7.20;93.90
10812;DHT22;5458;51.496;7.334;2022-11-20T11:20:04;7.30;94.00
10812;DHT22;5458;51.496;7.334;2022-11-20T11:22:32;7.40;94.00
10812;DHT22;5458;51.496;7.334;2022-11-20T11:24:59;7.40;94.00
10812;DHT22;5458;51.496;7.334;2022-11-20T11:27:25;7.50;94.30
10812;DHT22;5458;51.496;7.334;2022-11-20T11:30:02;7.50;94.20
10812;DHT22;5458;51.496;7.334;2022-11-20T11:32:29;7.50;94.30
10812;DHT22;5458;51.496;7.334;2022-11-20T11:35:01;7.40;93.90
10812;DHT22;5458;51.496;7.334;2022-11-20T11:37:36;7.40;94.10
10812;DHT22;5458;51.496;7.334;2022-11-20T11:40:04;7.40;94.00
10812;DHT22;5458;51.496;7.334;2022-11-20T11:42:30;7.30;94.40
10812;DHT22;5458;51.496;7.334;2022-11-20T11:44:59;7.40;94.80
10812;DHT22;5458;51.496;7.334;2022-11-20T11:47:35;7.40;94.10
10812;DHT22;5458;51.496;7.334;2022-11-20T11:50:25;7.30;94.00
10812;DHT22;5458;51.496;7.334;2022-11-20T11:53:15;7.10;94.00
10812;DHT22;5458;51.496;7.334;2022-11-20T11:56:03;7.10;94.40
10812;DHT22;5458;51.496;7.334;2022-11-20T11:58:46;7.10;94.80
10812;DHT22;5458;51.496;7.334;2022-11-20T12:01:59;7.10;94.60
10812;DHT22;5458;51.496;7.334;2022-11-20T12:07:19;7.10;95.00
10812;DHT22;5458;51.496;7.334;2022-11-20T12:09:49;7.30;95.40
10812;DHT22;5458;51.496;7.334;2022-11-20T12:12:31;7.30;95.30
10812;DHT22;5458;51.496;7.334;2022-11-20T12:15:01;7.50;94.80
10812;DHT22;5458;51.496;7.334;2022-11-20T12:17:27;7.50;94.50
10812;DHT22;5458;51.496;7.334;2022-11-20T12:19:53;7.50;94.40
10812;DHT22;5458;51.496;7.334;2022-11-20T12:30:21;7.10;94.60
10812;DHT22;5458;51.496;7.334;2022-11-20T12:42:02;7.00;95.20
10812;DHT22;5458;51.496;7.334;2022-11-20T12:53:49;6.80;95.50
10812;DHT22;5458;51.496;7.334;2022-11-20T12:56:47;6.70;95.40
10812;DHT22;5458;51.496;7.334;2022-11-20T12:59:33;6.80;95.70
10812;DHT22;5458;51.496;7.334;2022-11-20T13:02:11;6.70;95.60
10812;DHT22;5458;51.496;7.334;2022-11-20T13:07:32;6.70;95.90
10812;DHT22;5458;51.496;7.334;2022-11-20T13:10:01;6.70;96.10
10812;DHT22;5458;51.496;7.334;2022-11-20T13:12:42;6.70;96.10
10812;DHT22;5458;51.496;7.334;2022-11-20T13:15:24;6.60;96.10
10812;DHT22;5458;51.496;7.334;2022-11-20T13:17:58;6.60;96.10
10812;DHT22;5458;51.496;7.334;2022-11-20T13:20:25;6.50;96.40
10812;DHT22;5458;51.496;7.334;2022-11-20T13:22:53;6.50;96.50
10812;DHT22;5458;51.496;7.334;2022-11-20T13:25:30;6.40;96.50
10812;DHT22;5458;51.496;7.334;2022-11-20T13:27:58;6.40;96.50
10812;DHT22;5458;51.496;7.334;2022-11-20T13:30:26;6.30;96.70
10812;DHT22;5458;51.496;7.334;2022-11-20T13:35:33;6.30;97.10
10812;DHT22;5458;51.496;7.334;2022-11-20T13:38:10;6.20;96.90
10812;DHT22;5458;51.496;7.334;2022-11-20T13:45:55;6.10;97.10
10812;DHT22;5458;51.496;7.334;2022-11-20T13:48:23;6.20;97.10
10812;DHT22;5458;51.496;7.334;2022-11-20T14:01:49;6.30;97.20
10812;DHT22;5458;51.496;7.334;2022-11-20T14:04:20;6.20;97.00
10812;DHT22;5458;51.496;7.334;2022-11-20T14:06:51;6.20;97.20
10812;DHT22;5458;51.496;7.334;2022-11-20T14:09:28;6.30;97.30
10812;DHT22;5458;51.496;7.334;2022-11-20T14:11:54;6.20;97.30
10812;DHT22;5458;51.496;7.334;2022-11-20T14:14:22;6.20;97.40
10812;DHT22;5458;51.496;7.334;2022-11-20T14:16:48;6.30;97.50
10812;DHT22;5458;51.496;7.334;2022-11-20T14:21:54;6.40;97.70
10812;DHT22;5458;51.496;7.334;2022-11-20T14:24:31;6.40;97.30
10812;DHT22;5458;51.496;7.334;2022-11-20T14:26:57;6.30;97.40
10812;DHT22;5458;51.496;7.334;2022-11-20T14:29:28;6.30;97.50
10812;DHT22;5458;51.496;7.334;2022-11-20T14:31:54;6.30;97.80
10812;DHT22;5458;51.496;7.334;2022-11-20T14:34:30;6.20;97.80
10812;DHT22;5458;51.496;7.334;2022-11-20T14:37:02;6.20;98.00
10812;DHT22;5458;51.496;7.334;2022-11-20T14:39:34;6.10;98.40
10812;DHT22;5458;51.496;7.334;2022-11-20T14:42:00;6.10;98.90
10812;DHT22;5458;51.496;7.334;2022-11-20T14:44:33;6.00;98.80
10812;DHT22;5458;51.496;7.334;2022-11-20T14:47:02;6.00;99.00
10812;DHT22;5458;51.496;7.334;2022-11-20T14:49:30;5.90;99.20
10812;DHT22;5458;51.496;7.334;2022-11-20T14:52:10;6.00;99.40
10812;DHT22;5458;51.496;7.334;2022-11-20T14:55:04;6.00;99.70
10812;DHT22;5458;51.496;7.334;2022-11-20T14:57:34;6.20;99.90
10812;DHT22;5458;51.496;7.334;2022-11-20T15:00:19;6.20;99.60
10812;DHT22;5458;51.496;7.334;2022-11-20T15:02:47;6.10;99.40
10812;DHT22;5458;51.496;7.334;2022-11-20T15:05:14;6.20;99.50
10812;DHT22;5458;51.496;7.334;2022-11-20T15:07:42;6.10;99.80
10812;DHT22;5458;51.496;7.334;2022-11-20T15:10:27;6.20;99.90
10812;DHT22;5458;51.496;7.334;2022-11-20T15:13:00;6.10;99.90
10812;DHT22;5458;51.496;7.334;2022-11-20T15:15:36;6.00;99.90
10812;DHT22;5458;51.496;7.334;2022-11-20T15:18:04;6.00;99.90
10812;DHT22;5458;51.496;7.334;2022-11-20T15:20:32;5.90;99.90
10812;DHT22;5458;51.496;7.334;2022-11-20T15:22:58;5.80;99.90
10812;DHT22;5458;51.496;7.334;2022-11-20T15:25:24;5.90;99.90
10812;DHT22;5458;51.496;7.334;2022-11-20T15:27:56;5.90;99.90
10812;DHT22;5458;51.496;7.334;2022-11-20T15:30:23;5.80;99.90
10812;DHT22;5458;51.496;7.334;2022-11-20T15:32:49;5.80;99.90
10812;DHT22;5458;51.496;7.334;2022-11-20T15:35:15;5.80;99.90
10812;DHT22;5458;51.496;7.334;2022-11-20T15:37:41;5.80;99.90
10812;DHT22;5458;51.496;7.334;2022-11-20T15:40:08;6.00;99.90
10812;DHT22;5458;51.496;7.334;2022-11-20T15:42:34;6.00;99.90
10812;DHT22;5458;51.496;7.334;2022-11-20T15:45:00;6.10;99.90
10812;DHT22;5458;51.496;7.334;2022-11-20T15:47:29;6.10;99.90
10812;DHT22;5458;51.496;7.334;2022-11-20T15:49:55;6.10;99.90
10812;DHT22;5458;51.496;7.334;2022-11-20T15:52:21;6.00;99.90
10812;DHT22;5458;51.496;7.334;2022-11-20T15:54:46;6.00;99.90
10812;DHT22;5458;51.496;7.334;2022-11-20T15:57:12;5.90;99.90
10812;DHT22;5458;51.496;7.334;2022-11-20T15:59:38;5.90;99.90
10812;DHT22;5458;51.496;7.334;2022-11-20T16:02:14;5.90;99.90
10812;DHT22;5458;51.496;7.334;2022-11-20T16:04:39;5.80;99.90
10812;DHT22;5458;51.496;7.334;2022-11-20T16:07:05;5.80;99.90
10812;DHT22;5458;51.496;7.334;2022-11-20T16:09:31;5.80;99.90
10812;DHT22;5458;51.496;7.334;2022-11-20T16:11:56;5.70;99.90
10812;DHT22;5458;51.496;7.334;2022-11-20T16:14:25;5.80;99.90
10812;DHT22;5458;51.496;7.334;2022-11-20T16:17:09;5.80;99.90
10812;DHT22;5458;51.496;7.334;2022-11-20T16:19:34;5.80;99.90
10812;DHT22;5458;51.496;7.334;2022-11-20T16:22:00;5.80;99.90
10812;DHT22;5458;51.496;7.334;2022-11-20T16:24:28;5.70;99.90
10812;DHT22;5458;51.496;7.334;2022-11-20T16:26:55;5.60;99.90
10812;DHT22;5458;51.496;7.334;2022-11-20T16:29:27;5.60;99.90
10812;DHT22;5458;51.496;7.334;2022-11-20T16:31:52;5.50;99.90
10812;DHT22;5458;51.496;7.334;2022-11-20T16:34:18;5.50;99.90
10812;DHT22;5458;51.496;7.334;2022-11-20T16:36:44;5.60;99.90
10812;DHT22;5458;51.496;7.334;2022-11-20T16:39:10;5.60;99.90
10812;DHT22;5458;51.496;7.334;2022-11-20T16:41:36;5.70;99.90
10812;DHT22;5458;51.496;7.334;2022-11-20T16:44:07;5.70;99.90
10812;DHT22;5458;51.496;7.334;2022-11-20T16:46:32;5.70;99.90
10812;DHT22;5458;51.496;7.334;2022-11-20T16:49:00;5.80;99.90
10812;DHT22;5458;51.496;7.334;2022-11-20T16:51:28;5.80;99.90
10812;DHT22;5458;51.496;7.334;2022-11-20T16:53:54;5.80;99.90
10812;DHT22;5458;51.496;7.334;2022-11-20T16:56:22;5.80;99.90
10812;DHT22;5458;51.496;7.334;2022-11-20T16:58:49;5.80;99.90
10812;DHT22;5458;51.496;7.334;2022-11-20T17:01:20;5.80;99.90
10812;DHT22;5458;51.496;7.334;2022-11-20T17:03:52;5.90;99.90
10812;DHT22;5458;51.496;7.334;2022-11-20T17:06:20;5.90;99.90
10812;DHT22;5458;51.496;7.334;2022-11-20T17:08:46;5.90;99.90
10812;DHT22;5458;51.496;7.334;2022-11-20T17:11:16;5.90;99.90
10812;DHT22;5458;51.496;7.334;2022-11-20T17:13:43;5.90;99.90
10812;DHT22;5458;51.496;7.334;2022-11-20T17:16:14;6.00;99.90
10812;DHT22;5458;51.496;7.334;2022-11-20T17:18:40;6.00;99.90
10812;DHT22;5458;51.496;7.334;2022-11-20T17:21:06;6.00;99.90
10812;DHT22;5458;51.496;7.334;2022-11-20T17:23:37;5.90;99.90
10812;DHT22;5458;51.496;7.334;2022-11-20T17:26:09;6.00;99.90
10812;DHT22;5458;51.496;7.334;2022-11-20T17:28:36;6.00;99.90
10812;DHT22;5458;51.496;7.334;2022-11-20T17:31:07;5.90;99.90
10812;DHT22;5458;51.496;7.334;2022-11-20T17:33:34;5.90;99.90
10812;DHT22;5458;51.496;7.334;2022-11-20T17:36:00;5.90;99.90
10812;DHT22;5458;51.496;7.334;2022-11-20T17:38:26;5.90;99.90
10812;DHT22;5458;51.496;7.334;2022-11-20T17:40:51;6.00;99.90
10812;DHT22;5458;51.496;7.334;2022-11-20T17:43:17;6.00;99.90
10812;DHT22;5458;51.496;7.334;2022-11-20T17:45:43;6.00;99.90
10812;DHT22;5458;51.496;7.334;2022-11-20T17:48:09;6.00;99.90
10812;DHT22;5458;51.496;7.334;2022-11-20T17:50:35;6.10;99.90
10812;DHT22;5458;51.496;7.334;2022-11-20T17:53:00;6.10;99.90